createdAt,value
2022-12-06T00:01:11.434Z,100779.85
2022-12-06T00:03:42.270Z,100778.31
2022-12-06T00:06:15.006Z,100772.17
2022-12-06T00:08:46.100Z,100773.90
2022-12-06T00:11:17.628Z,100768.31
2022-12-06T00:14:00.290Z,100768.19
2022-12-06T00:16:30.488Z,100766.53
2022-12-06T00:19:03.493Z,100762.49
2022-12-06T00:21:42.350Z,100764.05
2022-12-06T00:24:13.765Z,100763.38
2022-12-06T00:26:50.817Z,100764.77
2022-12-06T00:29:22.697Z,100763.05
2022-12-06T00:31:52.171Z,100763.79
2022-12-06T00:34:21.326Z,100763.20
2022-12-06T00:36:49.968Z,100759.02
2022-12-06T00:39:20.103Z,100763.77
2022-12-06T00:41:48.851Z,100759.89
2022-12-06T00:44:21.567Z,100755.88
2022-12-06T00:46:50.453Z,100752.39
2022-12-06T00:49:19.464Z,100747.23
2022-12-06T00:51:48.990Z,100745.55
2022-12-06T00:54:17.641Z,100743.88
2022-12-06T00:56:49.137Z,100744.51
2022-12-06T00:59:19.073Z,100732.33
2022-12-06T01:01:51.023Z,100734.79
2022-12-06T01:04:20.282Z,100730.52
2022-12-06T01:06:50.823Z,100727.13
2022-12-06T01:09:19.419Z,100728.73
2022-12-06T01:11:48.496Z,100724.23
2022-12-06T01:14:17.322Z,100726.48
2022-12-06T01:16:45.920Z,100722.02
2022-12-06T01:19:14.828Z,100714.23
2022-12-06T01:21:45.067Z,100711.86
2022-12-06T01:24:13.640Z,100711.54
2022-12-06T01:26:45.906Z,100711.01
2022-12-06T01:29:14.510Z,100705.75
2022-12-06T01:31:43.876Z,100702.77
2022-12-06T01:34:16.591Z,100700.77
2022-12-06T01:36:46.760Z,100695.53
2022-12-06T01:39:16.942Z,100694.80
2022-12-06T01:41:47.190Z,100691.76
2022-12-06T01:44:42.169Z,100686.85
2022-12-06T01:47:20.881Z,100683.23
2022-12-06T01:49:53.474Z,100680.70
2022-12-06T01:52:25.914Z,100678.95
2022-12-06T01:54:58.500Z,100678.96
2022-12-06T01:57:28.335Z,100674.67
2022-12-06T01:59:59.011Z,100674.68
2022-12-06T02:02:34.322Z,100671.57
2022-12-06T02:05:08.839Z,100668.96
2022-12-06T02:07:44.025Z,100671.19
2022-12-06T02:10:17.347Z,100669.98
2022-12-06T02:12:54.036Z,100669.93
2022-12-06T02:15:39.801Z,100664.79
2022-12-06T02:18:20.991Z,100663.64
2022-12-06T02:20:59.666Z,100661.48
2022-12-06T02:24:03.790Z,100660.63
2022-12-06T02:26:44.355Z,100662.58
2022-12-06T02:29:48.038Z,100653.11
2022-12-06T02:32:23.666Z,100648.08
2022-12-06T02:35:03.726Z,100651.21
2022-12-06T02:37:39.459Z,100648.75
2022-12-06T02:40:14.407Z,100644.77
2022-12-06T02:42:54.967Z,100640.53
2022-12-06T02:45:32.339Z,100638.66
2022-12-06T02:48:18.596Z,100635.93
2022-12-06T02:50:55.668Z,100633.08
2022-12-06T02:53:28.144Z,100628.48
2022-12-06T02:56:08.970Z,100622.52
2022-12-06T02:58:38.420Z,100619.64
2022-12-06T03:01:12.691Z,100619.97
2022-12-06T03:04:07.191Z,100611.43
2022-12-06T03:06:59.453Z,100607.84
2022-12-06T03:10:01.158Z,100609.24
2022-12-06T03:12:37.567Z,100607.25
2022-12-06T03:15:14.693Z,100603.25
2022-12-06T03:17:50.108Z,100605.85
2022-12-06T03:20:29.884Z,100600.95
2022-12-06T03:23:08.174Z,100600.51
2022-12-06T03:25:38.360Z,100596.87
2022-12-06T03:28:19.960Z,100595.81
2022-12-06T03:30:52.793Z,100591.52
2022-12-06T03:33:28.093Z,100592.73
2022-12-06T03:35:58.841Z,100592.70
2022-12-06T03:38:34.284Z,100590.91
2022-12-06T03:41:09.145Z,100593.48
2022-12-06T03:43:39.138Z,100588.63
2022-12-06T03:46:13.805Z,100594.53
2022-12-06T03:48:47.596Z,100591.58
2022-12-06T03:51:22.025Z,100590.81
2022-12-06T03:53:58.022Z,100587.58
2022-12-06T03:56:27.734Z,100586.20
2022-12-06T03:58:58.216Z,100583.22
2022-12-06T04:01:28.247Z,100581.37
2022-12-06T04:03:59.806Z,100577.46
2022-12-06T04:06:30.485Z,100574.11
2022-12-06T04:09:15.193Z,100574.02
2022-12-06T04:11:48.263Z,100575.90
2022-12-06T04:14:17.957Z,100574.14
2022-12-06T04:17:07.436Z,100570.52
2022-12-06T04:19:36.221Z,100570.49
2022-12-06T04:22:19.569Z,100570.42
2022-12-06T04:24:48.214Z,100563.27
2022-12-06T04:27:35.356Z,100560.33
2022-12-06T04:30:27.171Z,100559.31
2022-12-06T04:33:19.738Z,100561.59
2022-12-06T04:36:06.954Z,100555.06
2022-12-06T04:38:42.020Z,100552.83
2022-12-06T04:41:11.166Z,100551.11
2022-12-06T04:43:44.268Z,100546.05
2022-12-06T04:46:53.882Z,100548.06
2022-12-06T04:49:27.609Z,100553.23
2022-12-06T04:51:58.459Z,100547.62
2022-12-06T04:57:22.861Z,100542.30
2022-12-06T04:59:51.777Z,100540.63
2022-12-06T05:02:24.157Z,100532.77
2022-12-06T05:05:00.876Z,100528.23
2022-12-06T05:07:33.030Z,100527.27
2022-12-06T05:10:08.309Z,100528.55
2022-12-06T05:12:37.003Z,100531.05
2022-12-06T05:15:07.519Z,100524.86
2022-12-06T05:17:38.358Z,100524.32
2022-12-06T05:20:13.811Z,100518.02
2022-12-06T05:22:45.299Z,100510.77
2022-12-06T05:25:16.332Z,100509.89
2022-12-06T05:27:44.997Z,100506.46
2022-12-06T05:30:14.854Z,100507.93
2022-12-06T05:32:43.469Z,100503.75
2022-12-06T05:35:30.707Z,100500.50
2022-12-06T05:38:04.451Z,100496.80
2022-12-06T05:40:33.343Z,100497.48
2022-12-06T05:43:05.276Z,100491.94
2022-12-06T05:45:37.458Z,100484.95
2022-12-06T05:48:07.625Z,100481.95
2022-12-06T05:50:41.835Z,100476.13
2022-12-06T05:53:13.630Z,100476.25
2022-12-06T05:55:43.175Z,100474.33
2022-12-06T05:58:19.310Z,100470.52
2022-12-06T06:00:53.994Z,100466.68
2022-12-06T06:03:28.359Z,100462.58
2022-12-06T06:06:02.983Z,100471.92
2022-12-06T06:08:35.665Z,100475.24
2022-12-06T06:11:18.389Z,100479.50
2022-12-06T06:13:54.071Z,100488.06
2022-12-06T06:16:23.172Z,100487.70
2022-12-06T06:18:54.532Z,100488.21
2022-12-06T06:21:23.564Z,100486.40
2022-12-06T06:23:52.195Z,100488.80
2022-12-06T06:26:21.738Z,100488.55
2022-12-06T06:28:50.754Z,100484.21
2022-12-06T06:31:25.609Z,100479.60
2022-12-06T06:33:54.782Z,100480.95
2022-12-06T06:36:26.724Z,100481.17
2022-12-06T06:38:55.998Z,100479.93
2022-12-06T06:41:25.404Z,100479.46
2022-12-06T06:43:59.670Z,100480.69
2022-12-06T06:46:30.689Z,100484.23
2022-12-06T06:49:03.054Z,100484.91
2022-12-06T06:51:32.358Z,100479.73
2022-12-06T06:54:00.865Z,100475.92
2022-12-06T06:56:29.601Z,100476.60
2022-12-06T06:58:58.603Z,100477.23
2022-12-06T07:01:27.486Z,100479.47
2022-12-06T07:03:56.268Z,100479.36
2022-12-06T07:06:28.085Z,100477.57
2022-12-06T07:08:58.837Z,100473.23
2022-12-06T07:11:27.413Z,100473.78
2022-12-06T07:14:02.607Z,100468.66
2022-12-06T07:16:31.212Z,100468.34
2022-12-06T07:19:02.414Z,100466.11
2022-12-06T07:21:36.092Z,100467.71
2022-12-06T07:24:05.113Z,100464.31
2022-12-06T07:26:34.227Z,100462.87
2022-12-06T07:29:05.178Z,100464.73
2022-12-06T07:31:37.004Z,100463.07
2022-12-06T07:34:16.108Z,100456.21
2022-12-06T07:36:44.694Z,100449.47
2022-12-06T07:39:15.015Z,100450.48
2022-12-06T07:42:11.295Z,100448.48
2022-12-06T07:45:09.810Z,100446.65
2022-12-06T07:47:41.186Z,100443.56
2022-12-06T07:50:17.663Z,100434.84
2022-12-06T07:52:48.853Z,100437.74
2022-12-06T07:55:18.720Z,100433.90
2022-12-06T07:57:47.308Z,100435.45
2022-12-06T08:00:17.639Z,100434.62
2022-12-06T08:02:47.518Z,100431.25
2022-12-06T08:05:16.424Z,100431.59
2022-12-06T08:07:44.959Z,100437.19
2022-12-06T08:10:14.243Z,100435.17
2022-12-06T08:12:42.942Z,100430.77
2022-12-06T08:15:12.617Z,100433.72
2022-12-06T08:17:41.724Z,100434.48
2022-12-06T08:20:12.391Z,100437.98
2022-12-06T08:22:43.290Z,100438.83
2022-12-06T08:25:11.914Z,100442.04
2022-12-06T08:27:41.009Z,100439.33
2022-12-06T08:30:10.403Z,100442.23
2022-12-06T08:32:41.645Z,100440.86
2022-12-06T08:35:12.799Z,100437.92
2022-12-06T08:37:41.477Z,100433.94
2022-12-06T08:40:11.468Z,100433.20
2022-12-06T08:42:41.410Z,100433.17
2022-12-06T08:45:10.709Z,100433.73
2022-12-06T08:47:39.171Z,100433.58
2022-12-06T08:50:09.211Z,100432.42
2022-12-06T08:52:38.007Z,100429.34
2022-12-06T08:55:08.623Z,100421.70
2022-12-06T08:57:37.249Z,100419.59
2022-12-06T09:00:09.732Z,100419.64
2022-12-06T09:02:40.417Z,100417.11
2022-12-06T09:05:14.007Z,100412.31
2022-12-06T09:07:42.504Z,100413.18
2022-12-06T09:10:15.314Z,100412.70
2022-12-06T09:12:43.589Z,100405.59
2022-12-06T09:15:12.827Z,100404.00
2022-12-06T09:17:41.871Z,100399.41
2022-12-06T09:20:17.600Z,100396.73
2022-12-06T09:22:46.607Z,100392.13
2022-12-06T09:25:15.533Z,100379.12
2022-12-06T09:27:44.836Z,100376.30
2022-12-06T09:30:15.365Z,100374.44
2022-12-06T09:32:47.905Z,100375.05
2022-12-06T09:35:20.909Z,100376.80
2022-12-06T09:37:52.349Z,100374.98
2022-12-06T09:40:30.825Z,100375.58
2022-12-06T09:43:07.393Z,100369.78
2022-12-06T09:45:56.753Z,100364.92
2022-12-06T09:48:49.081Z,100365.81
2022-12-06T09:51:31.457Z,100361.59
2022-12-06T09:54:19.728Z,100355.64
2022-12-06T09:57:06.250Z,100353.92
2022-12-06T09:59:49.854Z,100352.55
2022-12-06T10:02:33.309Z,100347.77
2022-12-06T10:05:30.362Z,100340.59
2022-12-06T10:08:10.822Z,100343.22
2022-12-06T10:10:52.334Z,100339.20
2022-12-06T10:13:32.925Z,100330.13
2022-12-06T10:16:12.420Z,100321.05
2022-12-06T10:18:58.070Z,100315.02
2022-12-06T10:21:37.937Z,100313.16
2022-12-06T10:24:22.167Z,100312.41
2022-12-06T10:26:52.642Z,100307.94
2022-12-06T10:29:29.944Z,100301.20
2022-12-06T10:32:10.825Z,100299.31
2022-12-06T10:34:51.748Z,100295.11
2022-12-06T10:37:36.528Z,100294.15
2022-12-06T10:40:17.212Z,100291.70
2022-12-06T10:42:51.584Z,100287.69
2022-12-06T10:45:49.559Z,100282.05
2022-12-06T10:48:25.832Z,100274.55
2022-12-06T10:51:08.568Z,100266.05
2022-12-06T10:53:42.661Z,100263.33
2022-12-06T10:56:17.246Z,100259.26
2022-12-06T10:58:54.262Z,100258.31
2022-12-06T11:01:28.041Z,100254.75
2022-12-06T11:04:01.561Z,100255.26
2022-12-06T11:06:36.048Z,100254.50
2022-12-06T11:09:15.673Z,100252.65
2022-12-06T11:11:51.267Z,100252.11
2022-12-06T11:14:28.564Z,100249.28
2022-12-06T11:17:03.919Z,100251.86
2022-12-06T11:19:36.612Z,100249.94
2022-12-06T11:22:15.100Z,100248.30
2022-12-06T11:24:50.796Z,100247.80
2022-12-06T11:27:26.765Z,100244.59
2022-12-06T11:29:56.410Z,100242.14
2022-12-06T11:32:28.520Z,100236.48
2022-12-06T11:35:00.556Z,100228.13
2022-12-06T11:37:33.699Z,100224.23
2022-12-06T11:40:15.030Z,100220.55
2022-12-06T11:42:44.038Z,100226.64
2022-12-06T11:45:24.523Z,100224.40
2022-12-06T11:47:54.833Z,100223.30
2022-12-06T11:50:28.724Z,100217.64
2022-12-06T11:53:02.256Z,100218.62
2022-12-06T11:55:36.875Z,100220.07
2022-12-06T11:58:13.029Z,100217.60
2022-12-06T12:00:58.339Z,100215.61
2022-12-06T12:03:28.824Z,100215.35
2022-12-06T12:06:18.411Z,100214.83
2022-12-06T12:08:58.526Z,100209.30
2022-12-06T12:11:29.743Z,100209.07
2022-12-06T12:14:03.228Z,100202.90
2022-12-06T12:16:48.785Z,100203.95
2022-12-06T12:19:31.435Z,100193.66
2022-12-06T12:22:13.523Z,100185.77
2022-12-06T12:27:48.573Z,100184.73
2022-12-06T12:30:26.343Z,100179.75
2022-12-06T12:33:20.903Z,100173.71
2022-12-06T12:35:52.589Z,100173.79
2022-12-06T12:38:32.246Z,100175.41
2022-12-06T12:41:04.604Z,100175.15
2022-12-06T12:43:34.539Z,100178.02
2022-12-06T12:46:15.643Z,100179.27
2022-12-06T12:48:46.738Z,100173.96
2022-12-06T12:51:33.044Z,100174.74
2022-12-06T12:54:04.176Z,100166.08
2022-12-06T12:56:36.373Z,100160.15
2022-12-06T12:59:13.567Z,100161.31
2022-12-06T13:01:52.204Z,100163.36
2022-12-06T13:04:36.293Z,100158.39
2022-12-06T13:07:11.394Z,100156.32
2022-12-06T13:09:48.259Z,100150.08
2022-12-06T13:12:27.863Z,100145.23
2022-12-06T13:15:02.837Z,100145.66
2022-12-06T13:17:37.854Z,100145.45
2022-12-06T13:20:22.470Z,100138.83
2022-12-06T13:22:54.258Z,100136.63
2022-12-06T13:25:23.184Z,100133.88
2022-12-06T13:27:56.366Z,100134.42
2022-12-06T13:30:30.124Z,100124.92
2022-12-06T13:33:02.648Z,100118.57
2022-12-06T13:35:37.700Z,100122.50
2022-12-06T13:38:26.844Z,100121.78
2022-12-06T13:40:58.385Z,100122.14
2022-12-06T13:43:59.957Z,100118.18
2022-12-06T13:46:47.705Z,100122.49
2022-12-06T13:49:49.004Z,100121.68
2022-12-06T13:53:04.025Z,100118.94
2022-12-06T13:55:59.140Z,100120.48
2022-12-06T13:58:53.790Z,100118.89
2022-12-06T14:01:49.256Z,100114.98
2022-12-06T14:04:38.891Z,100113.15
2022-12-06T14:09:44.773Z,100111.70
2022-12-06T14:12:22.248Z,100105.02
2022-12-06T14:15:06.138Z,100100.31
2022-12-06T14:18:01.576Z,100097.24
2022-12-06T14:20:30.274Z,100101.58
2022-12-06T14:23:00.108Z,100100.81
2022-12-06T14:25:30.879Z,100098.56
2022-12-06T14:28:05.499Z,100093.05
2022-12-06T14:30:36.176Z,100095.34
2022-12-06T14:33:18.418Z,100096.70
2022-12-06T14:36:02.611Z,100093.40
2022-12-06T14:38:31.957Z,100086.30
2022-12-06T14:41:19.123Z,100093.41
2022-12-06T14:43:48.344Z,100088.39
2022-12-06T14:46:22.092Z,100089.08
2022-12-06T14:49:09.725Z,100086.55
2022-12-06T14:51:43.255Z,100085.92
2022-12-06T14:54:34.516Z,100082.98
2022-12-06T14:57:18.066Z,100084.71
2022-12-06T15:00:25.918Z,100082.04
2022-12-06T15:02:40.703Z,100082.73
2022-12-06T15:05:31.682Z,100079.30
2022-12-06T15:08:17.180Z,100078.13
2022-12-06T15:10:55.403Z,100072.70
2022-12-06T15:13:27.324Z,100072.89
2022-12-06T15:16:10.574Z,100071.54
2022-12-06T15:18:54.567Z,100071.63
2022-12-06T15:21:23.751Z,100067.33
2022-12-06T15:23:57.362Z,100066.73
2022-12-06T15:26:26.243Z,100069.66
2022-12-06T15:28:55.095Z,100065.55
2022-12-06T15:31:26.743Z,100066.93
2022-12-06T15:34:01.619Z,100064.77
2022-12-06T15:36:32.825Z,100057.98
2022-12-06T15:39:01.616Z,100055.11
2022-12-06T15:41:30.851Z,100045.04
2022-12-06T15:44:00.367Z,100042.45
2022-12-06T15:46:29.917Z,100043.29
2022-12-06T15:48:59.601Z,100038.25
2022-12-06T15:51:29.308Z,100037.86
2022-12-06T15:53:59.817Z,100037.74
2022-12-06T15:56:31.455Z,100035.17
2022-12-06T15:59:05.751Z,100034.06
2022-12-06T16:01:44.882Z,100030.65
2022-12-06T16:04:17.313Z,100024.86
2022-12-06T16:06:46.954Z,100027.11
2022-12-06T16:09:19.092Z,100029.52
2022-12-06T16:11:52.100Z,100027.48
2022-12-06T16:14:21.718Z,100028.38
2022-12-06T16:16:50.396Z,100034.52
2022-12-06T16:19:19.099Z,100029.80
2022-12-06T16:21:55.092Z,100031.17
2022-12-06T16:24:24.060Z,100028.83
2022-12-06T16:26:52.755Z,100028.14
2022-12-06T16:29:24.337Z,100026.95
2022-12-06T16:31:53.964Z,100021.94
2022-12-06T16:34:23.114Z,100022.01
2022-12-06T16:36:58.971Z,100023.89
2022-12-06T16:39:28.833Z,100020.50
2022-12-06T16:41:58.825Z,100020.86
2022-12-06T16:44:27.521Z,100017.25
2022-12-06T16:46:56.435Z,100015.55
2022-12-06T16:52:17.497Z,100013.36
2022-12-06T16:54:46.183Z,100011.58
2022-12-06T16:57:15.253Z,100010.40
2022-12-06T16:59:44.048Z,100006.70
2022-12-06T17:02:26.085Z,100003.96
2022-12-06T17:04:59.638Z,99998.86
2022-12-06T17:07:28.439Z,99996.95
2022-12-06T17:10:00.501Z,99993.25
2022-12-06T17:12:29.173Z,99991.64
2022-12-06T17:15:00.444Z,99991.62
2022-12-06T17:17:29.556Z,99988.98
2022-12-06T17:20:00.209Z,99988.14
2022-12-06T17:22:29.448Z,99989.26
2022-12-06T17:25:01.365Z,99988.19
2022-12-06T17:27:34.187Z,99987.02
2022-12-06T17:30:02.954Z,99983.35
2022-12-06T17:32:34.344Z,99986.68
2022-12-06T17:35:03.688Z,99991.48
2022-12-06T17:37:32.800Z,99987.64
2022-12-06T17:40:03.943Z,99991.85
2022-12-06T17:42:51.276Z,99989.36
2022-12-06T17:45:24.651Z,99982.89
2022-12-06T17:47:53.761Z,99979.14
2022-12-06T17:50:22.961Z,99978.57
2022-12-06T17:52:51.603Z,99977.89
2022-12-06T17:55:20.163Z,99980.00
2022-12-06T17:57:49.081Z,99981.67
2022-12-06T18:00:19.035Z,99980.42
2022-12-06T18:02:48.167Z,99976.52
2022-12-06T18:05:17.333Z,99975.79
2022-12-06T18:07:46.063Z,99976.66
2022-12-06T18:10:14.805Z,99976.99
2022-12-06T18:12:43.648Z,99972.55
2022-12-06T18:15:27.129Z,99968.98
2022-12-06T18:17:56.134Z,99963.73
2022-12-06T18:20:24.860Z,99964.06
2022-12-06T18:22:56.193Z,99960.98
2022-12-06T18:25:25.162Z,99959.41
2022-12-06T18:27:56.781Z,99960.05
2022-12-06T18:30:26.381Z,99956.42
2022-12-06T18:32:55.121Z,99950.48
2022-12-06T18:35:23.724Z,99949.75
2022-12-06T18:37:53.663Z,99947.94
2022-12-06T18:40:22.406Z,99949.19
2022-12-06T18:42:51.202Z,99949.02
2022-12-06T18:45:20.211Z,99948.54
2022-12-06T18:47:48.963Z,99949.86
2022-12-06T18:50:17.858Z,99948.98
2022-12-06T18:52:49.560Z,99941.65
2022-12-06T18:55:19.964Z,99938.00
2022-12-06T18:57:48.835Z,99935.44
2022-12-06T19:00:18.702Z,99935.05
2022-12-06T19:02:47.304Z,99932.83
2022-12-06T19:05:33.030Z,99933.52
2022-12-06T19:08:05.765Z,99934.04
2022-12-06T19:10:38.669Z,99930.09
2022-12-06T19:13:07.475Z,99927.80
2022-12-06T19:15:47.429Z,99927.04
2022-12-06T19:18:17.836Z,99926.00
2022-12-06T19:20:48.303Z,99924.64
2022-12-06T19:23:17.903Z,99924.98
2022-12-06T19:25:46.708Z,99922.45
2022-12-06T19:28:15.921Z,99916.83
2022-12-06T19:30:45.044Z,99914.86
2022-12-06T19:33:17.621Z,99916.79
2022-12-06T19:35:59.335Z,99915.19
2022-12-06T19:38:28.659Z,99919.48
2022-12-06T19:40:58.913Z,99914.98
2022-12-06T19:43:46.277Z,99911.36
2022-12-06T19:46:17.485Z,99908.59
2022-12-06T19:48:47.375Z,99909.64
2022-12-06T19:51:20.123Z,99909.64
2022-12-06T19:53:51.938Z,99904.20
2022-12-06T19:56:20.897Z,99904.91
2022-12-06T19:58:49.573Z,99906.46
2022-12-06T20:01:21.274Z,99905.71
2022-12-06T20:03:50.652Z,99906.95
2022-12-06T20:06:23.360Z,99905.75
2022-12-06T20:08:54.339Z,99900.02
2022-12-06T20:11:53.034Z,99898.36
2022-12-06T20:14:22.854Z,99903.77
2022-12-06T20:16:53.943Z,99908.23
2022-12-06T20:19:24.057Z,99906.41
2022-12-06T20:21:52.971Z,99907.23
2022-12-06T20:24:26.581Z,99910.48
2022-12-06T20:26:56.095Z,99909.48
2022-12-06T20:29:29.536Z,99905.00
2022-12-06T20:32:00.697Z,99903.88
2022-12-06T20:34:33.329Z,99900.71
2022-12-06T20:37:05.803Z,99891.92
2022-12-06T20:39:35.284Z,99888.25
2022-12-06T20:42:12.251Z,99882.31
2022-12-06T20:44:41.289Z,99884.63
2022-12-06T20:47:12.833Z,99879.04
2022-12-06T20:49:44.823Z,99879.42
2022-12-06T20:52:16.325Z,99875.90
2022-12-06T20:54:45.329Z,99881.40
2022-12-06T20:57:16.599Z,99880.77
2022-12-06T20:59:45.434Z,99872.54
2022-12-06T21:02:14.388Z,99868.95
2022-12-06T21:04:43.717Z,99867.42
2022-12-06T21:07:12.318Z,99867.82
2022-12-06T21:09:40.983Z,99868.20
2022-12-06T21:12:09.707Z,99865.17
2022-12-06T21:14:38.432Z,99861.46
2022-12-06T21:17:07.816Z,99860.66
2022-12-06T21:19:37.169Z,99858.36
2022-12-06T21:22:08.720Z,99859.95
2022-12-06T21:24:38.803Z,99863.98
2022-12-06T21:27:10.058Z,99858.20
2022-12-06T21:29:42.128Z,99860.06
2022-12-06T21:32:10.744Z,99861.55
2022-12-06T21:34:45.974Z,99862.91
2022-12-06T21:37:17.697Z,99861.77
2022-12-06T21:39:47.041Z,99859.45
2022-12-06T21:42:16.508Z,99856.59
2022-12-06T21:44:45.136Z,99858.47
2022-12-06T21:47:15.356Z,99859.76
2022-12-06T21:49:43.939Z,99857.91
2022-12-06T21:52:13.260Z,99859.45
2022-12-06T21:54:41.945Z,99853.11
2022-12-06T21:57:10.468Z,99854.86
2022-12-06T21:59:39.619Z,99857.71
2022-12-06T22:02:10.313Z,99857.59
2022-12-06T22:04:39.425Z,99860.36
2022-12-06T22:07:08.504Z,99859.35
2022-12-06T22:09:37.175Z,99853.73
2022-12-06T22:12:06.892Z,99851.02
2022-12-06T22:14:35.950Z,99846.19
2022-12-06T22:17:07.662Z,99841.84
2022-12-06T22:19:37.073Z,99838.89
2022-12-06T22:22:05.621Z,99837.35
2022-12-06T22:24:36.520Z,99834.94
2022-12-06T22:27:05.746Z,99834.05
2022-12-06T22:29:34.284Z,99827.50
2022-12-06T22:32:03.847Z,99830.20
2022-12-06T22:34:32.556Z,99826.73
2022-12-06T22:37:01.163Z,99830.59
2022-12-06T22:39:32.985Z,99832.30
2022-12-06T22:42:01.701Z,99832.73
2022-12-06T22:44:30.880Z,99831.32
2022-12-06T22:47:01.974Z,99830.37
2022-12-06T22:49:30.786Z,99825.71
2022-12-06T22:52:00.900Z,99826.40
2022-12-06T22:54:29.512Z,99825.54
2022-12-06T22:57:01.194Z,99826.71
2022-12-06T22:59:29.920Z,99823.05
2022-12-06T23:02:02.354Z,99821.44
2022-12-06T23:04:34.269Z,99818.64
2022-12-06T23:07:05.187Z,99812.55
2022-12-06T23:09:34.595Z,99813.22
2022-12-06T23:12:04.904Z,99810.85
2022-12-06T23:14:33.742Z,99813.71
2022-12-06T23:17:05.258Z,99808.84
2022-12-06T23:19:37.161Z,99802.64
2022-12-06T23:22:06.165Z,99798.25
2022-12-06T23:24:34.957Z,99796.27
2022-12-06T23:27:06.291Z,99793.56
2022-12-06T23:29:34.995Z,99790.90
2022-12-06T23:32:06.346Z,99791.23
2022-12-06T23:34:35.348Z,99790.03
2022-12-06T23:37:04.179Z,99789.62
2022-12-06T23:39:32.692Z,99785.96
2022-12-06T23:42:01.193Z,99784.16
2022-12-06T23:44:30.061Z,99785.66
2022-12-06T23:47:01.733Z,99783.56
2022-12-06T23:49:31.028Z,99778.05
2022-12-06T23:52:02.529Z,99776.77
2022-12-06T23:54:31.480Z,99777.92
2022-12-06T23:57:01.053Z,99779.04
2022-12-06T23:59:31.166Z,99774.71
